Time;durP1;ratioP1;P1;durP2;ratioP2;P2;SDS_P1;SDS_P2;PMS_P1;PMS_P2;Temp;Humidity;BMP_temperature;BMP_pressure;BME280_temperature;BME280_humidity;BME280_pressure;Samples;Min_cycle;Max_cycle;Signal;HPM_P1;HPM_P2
2021/09/24 00:00:06;;;;;;;;;;;;;;;;;;2083310;28;20059;-62
2021/09/24 00:01:08;;;;;;;;;;;;;;;;;;2081510;28;19928;-61
2021/09/24 00:02:10;;;;;;;;;;;;;;;;;;2086068;28;20362;-61
2021/09/24 00:03:11;;;;;;;;;;;;;;;;;;2088868;28;19927;-62
2021/09/24 00:04:13;;;;;;;;;;;;;;;;;;2089921;28;19964;-62
2021/09/24 00:05:14;;;;;;;;;;;;;;;;;;2088674;28;19974;-61
2021/09/24 00:06:14;;;;;;;;;;;;;;;;;;2081588;28;19921;-61
2021/09/24 00:07:15;;;;;;;;;;;;;;;;;;2081664;28;19928;-61
2021/09/24 00:08:16;;;;;;;;;;;;;;;;;;2086448;28;20366;-61
2021/09/24 00:09:17;;;;;;;;;;;;;;;;;;2089722;28;19921;-61
2021/09/24 00:10:18;;;;;;;;;;;;;;;;;;2089707;28;19921;-61
2021/09/24 00:11:19;;;;;;;;;;;;;;;;;;2087714;28;19921;-61
2021/09/24 00:12:19;;;;;;;;;;;;;;;;;;2081539;28;19984;-61
2021/09/24 00:13:21;;;;;;;;;;;;;;;;;;2081287;28;20027;-61
2021/09/24 00:14:21;;;;;;;;;;;;;;;;;;2087974;28;20345;-61
2021/09/24 00:15:22;;;;;;;;;;;;;;;;;;2089683;28;20381;-61
2021/09/24 00:16:23;;;;;;;;;;;;;;;;;;2089319;28;19925;-61
2021/09/24 00:17:24;;;;;;;;;;;;;;;;;;2087778;28;20386;-61
2021/09/24 00:18:25;;;;;;;;;;;;;;;;;;2089929;28;19928;-60
2021/09/24 00:19:25;;;;;;;;;;;;;;;;;;2089316;28;19974;-61
2021/09/24 00:20:26;;;;;;;;;;;;;;;;;;2087644;28;19982;-60
2021/09/24 00:21:27;;;;;;;;;;;;;;;;;;2089814;28;20178;-61
2021/09/24 00:22:28;;;;;;;;;;;;;;;;;;2089221;28;19942;-61
2021/09/24 00:23:29;;;;;;;;;;;;;;;;;;2087878;28;20295;-61
2021/09/24 00:24:30;;;;;;;;;;;;;;;;;;2089707;28;19929;-61
2021/09/24 00:25:31;;;;;;;;;;;;;;;;;;2088913;28;19920;-61
2021/09/24 00:26:32;;;;;;;;;;;;;;;;;;2085223;28;20413;-61
2021/09/24 00:27:32;;;;;;;;;;;;;;;;;;2081509;28;19921;-61
2021/09/24 00:28:33;;;;;;;;;;;;;;;;;;2083955;28;19920;-61
2021/09/24 00:29:34;;;;;;;;;;;;;;;;;;2087930;28;20009;-61
2021/09/24 00:30:35;;;;;;;;;;;;;;;;;;2089614;28;20378;-60
2021/09/24 00:31:36;;;;;;;;;;;;;;;;;;2088777;28;19921;-61
2021/09/24 00:32:37;;;;;;;;;;;;;;;;;;2088364;28;19920;-61
2021/09/24 00:33:37;;;;;;;;;;;;;;;;;;2089752;28;19966;-61
2021/09/24 00:34:39;;;;;;;;;;;;;;;;;;2088834;28;19925;-61
2021/09/24 00:35:39;;;;;;;;;;;;;;;;;;2083243;28;20413;-60
2021/09/24 00:36:40;;;;;;;;;;;;;;;;;;2081373;28;19925;-60
2021/09/24 00:37:41;;;;;;;;;;;;;;;;;;2085435;28;19928;-60
2021/09/24 00:38:42;;;;;;;;;;;;;;;;;;2082842;28;20259;-60
2021/09/24 00:39:43;;;;;;;;;;;;;;;;;;2081529;28;19921;-60
2021/09/24 00:40:43;;;;;;;;;;;;;;;;;;2085848;28;19929;-60
2021/09/24 00:41:44;;;;;;;;;;;;;;;;;;2082502;28;19928;-61
2021/09/24 00:42:45;;;;;;;;;;;;;;;;;;2081434;28;20297;-61
2021/09/24 00:43:46;;;;;;;;;;;;;;;;;;2085376;28;20325;-60
2021/09/24 00:44:47;;;;;;;;;;;;;;;;;;2089477;28;19935;-61
2021/09/24 00:45:48;;;;;;;;;;;;;;;;;;2089614;28;19931;-60
2021/09/24 00:46:49;;;;;;;;;;;;;;;;;;2087194;28;19925;-60
2021/09/24 00:47:53;;;;;;;;;;;;;;;;;;2089589;28;20413;-61
2021/09/24 00:48:54;;;;;;;;;;;;;;;;;;2089532;28;19925;-60
2021/09/24 00:49:54;;;;;;;;;;;;;;;;;;2087110;28;19921;-60
2021/09/24 00:50:55;;;;;;;;;;;;;;;;;;2079891;28;19921;-59
2021/09/24 00:51:56;;;;;;;;;;;;;;;;;;2084779;28;19966;-58
2021/09/24 00:52:57;;;;;;;;;;;;;;;;;;2087061;28;19928;-60
2021/09/24 00:53:58;;;;;;;;;;;;;;;;;;2081216;28;19921;-60
2021/09/24 00:54:59;;;;;;;;;;;;;;;;;;2081842;28;19925;-60
2021/09/24 00:55:59;;;;;;;;;;;;;;;;;;2087408;28;19920;-60
2021/09/24 00:57:00;;;;;;;;;;;;;;;;;;2089526;28;20374;-60
2021/09/24 00:58:01;;;;;;;;;;;;;;;;;;2089072;28;19921;-60
2021/09/24 00:59:02;;;;;;;;;;;;;;;;;;2087676;28;20299;-60
2021/09/24 01:00:03;;;;;;;;;;;;;;;;;;2089631;28;19920;-60
2021/09/24 01:01:03;;;;;;;;;;;;;;;;;;2088836;28;20386;-60
2021/09/24 01:02:04;;;;;;;;;;;;;;;;;;2085253;28;20394;-60
2021/09/24 01:03:05;;;;;;;;;;;;;;;;;;2081248;28;20298;-60
2021/09/24 01:04:06;;;;;;;;;;;;;;;;;;2083271;28;19921;-60
2021/09/24 01:05:09;;;;;;;;;;;;;;;;;;2087983;28;19921;-60
2021/09/24 01:06:10;;;;;;;;;;;;;;;;;;2089524;28;19950;-60
2021/09/24 01:07:10;;;;;;;;;;;;;;;;;;2088588;28;19936;-60
2021/09/24 01:08:11;;;;;;;;;;;;;;;;;;2088160;28;20398;-60
2021/09/24 01:09:12;;;;;;;;;;;;;;;;;;2089385;28;19928;-60
2021/09/24 01:10:13;;;;;;;;;;;;;;;;;;2088729;28;19928;-60
2021/09/24 01:11:13;;;;;;;;;;;;;;;;;;2087955;28;20390;-60
2021/09/24 01:12:14;;;;;;;;;;;;;;;;;;2089438;28;19925;-60
2021/09/24 01:13:15;;;;;;;;;;;;;;;;;;2088567;28;20332;-60
2021/09/24 01:14:16;;;;;;;;;;;;;;;;;;2083017;28;19928;-60
2021/09/24 01:15:17;;;;;;;;;;;;;;;;;;2081127;28;19928;-60
2021/09/24 01:16:18;;;;;;;;;;;;;;;;;;2085455;28;19978;-60
2021/09/24 01:17:18;;;;;;;;;;;;;;;;;;2082332;28;19928;-60
2021/09/24 01:18:20;;;;;;;;;;;;;;;;;;2081278;28;19921;-60
2021/09/24 01:19:21;;;;;;;;;;;;;;;;;;2085283;28;19925;-60
2021/09/24 01:20:22;;;;;;;;;;;;;;;;;;2089491;28;19970;-60
2021/09/24 01:21:23;;;;;;;;;;;;;;;;;;2089522;28;19921;-60
2021/09/24 01:22:24;;;;;;;;;;;;;;;;;;2087227;28;19931;-60
2021/09/24 01:23:25;;;;;;;;;;;;;;;;;;2089365;28;19921;-63
2021/09/24 01:24:26;;;;;;;;;;;;;;;;;;2089479;28;19971;-62
2021/09/24 01:25:27;;;;;;;;;;;;;;;;;;2087544;28;20830;-62
2021/09/24 01:26:27;;;;;;;;;;;;;;;;;;2081306;28;19975;-59
2021/09/24 01:27:28;;;;;;;;;;;;;;;;;;2081242;28;20302;-62
2021/09/24 01:28:29;;;;;;;;;;;;;;;;;;2086777;28;19921;-62
2021/09/24 01:29:30;;;;;;;;;;;;;;;;;;2089568;28;19921;-62
2021/09/24 01:30:31;;;;;;;;;;;;;;;;;;2089004;28;20324;-62
2021/09/24 01:31:31;;;;;;;;;;;;;;;;;;2087561;28;20397;-62
2021/09/24 01:32:32;;;;;;;;;;;;;;;;;;2089352;28;20441;-62
2021/09/24 01:33:33;;;;;;;;;;;;;;;;;;2088817;28;19921;-62
2021/09/24 01:34:34;;;;;;;;;;;;;;;;;;2087465;28;19932;-62
2021/09/24 01:35:35;;;;;;;;;;;;;;;;;;2089560;28;20386;-60
2021/09/24 01:36:35;;;;;;;;;;;;;;;;;;2088863;28;20378;-62
2021/09/24 01:37:36;;;;;;;;;;;;;;;;;;2085624;28;20381;-62
2021/09/24 01:38:38;;;;;;;;;;;;;;;;;;2081244;28;20007;-62
2021/09/24 01:39:39;;;;;;;;;;;;;;;;;;2082873;28;19928;-61
2021/09/24 01:40:40;;;;;;;;;;;;;;;;;;2087428;28;20286;-60
2021/09/24 01:41:41;;;;;;;;;;;;;;;;;;2089405;28;19921;-60
2021/09/24 01:42:41;;;;;;;;;;;;;;;;;;2088548;28;19928;-60
2021/09/24 01:43:42;;;;;;;;;;;;;;;;;;2087803;28;19971;-60
2021/09/24 01:44:43;;;;;;;;;;;;;;;;;;2089280;28;19925;-61
2021/09/24 01:45:44;;;;;;;;;;;;;;;;;;2088327;28;20024;-61
2021/09/24 01:46:45;;;;;;;;;;;;;;;;;;2084120;28;20096;-61
2021/09/24 01:47:45;;;;;;;;;;;;;;;;;;2081243;28;19932;-62
2021/09/24 01:48:46;;;;;;;;;;;;;;;;;;2088505;28;19924;-62
2021/09/24 01:49:47;;;;;;;;;;;;;;;;;;2087863;28;19925;-62
2021/09/24 01:50:48;;;;;;;;;;;;;;;;;;2085567;28;20362;-62
2021/09/24 01:51:48;;;;;;;;;;;;;;;;;;2086340;28;19927;-62
2021/09/24 01:52:49;;;;;;;;;;;;;;;;;;2083319;28;20387;-62
2021/09/24 01:53:50;;;;;;;;;;;;;;;;;;2082508;28;19928;-62
2021/09/24 01:54:51;;;;;;;;;;;;;;;;;;2086161;28;20345;-62
2021/09/24 01:55:52;;;;;;;;;;;;;;;;;;2090075;28;19925;-62
2021/09/24 01:56:53;;;;;;;;;;;;;;;;;;2090793;28;19920;-61
2021/09/24 01:57:54;;;;;;;;;;;;;;;;;;2088581;28;20259;-60
2021/09/24 01:58:54;;;;;;;;;;;;;;;;;;2090533;28;20324;-60
2021/09/24 01:59:55;;;;;;;;;;;;;;;;;;2090645;28;19920;-60
2021/09/24 02:00:56;;;;;;;;;;;;;;;;;;2088368;28;19921;-59
2021/09/24 02:01:57;;;;;;;;;;;;;;;;;;2090481;28;20396;-60
2021/09/24 02:02:58;;;;;;;;;;;;;;;;;;2090794;28;19928;-60
2021/09/24 02:03:59;;;;;;;;;;;;;;;;;;2088825;28;19924;-59
2021/09/24 02:05:00;;;;;;;;;;;;;;;;;;2082384;28;19925;-59
2021/09/24 02:06:01;;;;;;;;;;;;;;;;;;2082180;28;19927;-59
2021/09/24 02:07:02;;;;;;;;;;;;;;;;;;2087843;28;19921;-59
2021/09/24 02:08:03;;;;;;;;;;;;;;;;;;2090509;28;20416;-59
2021/09/24 02:09:04;;;;;;;;;;;;;;;;;;2090053;28;20398;-62
2021/09/24 02:10:05;;;;;;;;;;;;;;;;;;2088710;28;19925;-62
2021/09/24 02:11:06;;;;;;;;;;;;;;;;;;2090569;28;19921;-60
2021/09/24 02:12:06;;;;;;;;;;;;;;;;;;2090124;28;20435;-62
2021/09/24 02:13:07;;;;;;;;;;;;;;;;;;2085501;28;19921;-61
2021/09/24 02:14:08;;;;;;;;;;;;;;;;;;2082359;28;19920;-61
2021/09/24 02:15:09;;;;;;;;;;;;;;;;;;2084914;28;19941;-60
2021/09/24 02:16:10;;;;;;;;;;;;;;;;;;2085025;28;19921;-60
2021/09/24 02:17:10;;;;;;;;;;;;;;;;;;2082360;28;19971;-61
2021/09/24 02:18:11;;;;;;;;;;;;;;;;;;2085567;28;19982;-60
2021/09/24 02:19:12;;;;;;;;;;;;;;;;;;2084492;28;19920;-60
2021/09/24 02:20:13;;;;;;;;;;;;;;;;;;2082339;28;19921;-60
2021/09/24 02:21:14;;;;;;;;;;;;;;;;;;2084979;28;20332;-60
2021/09/24 02:22:15;;;;;;;;;;;;;;;;;;2090358;28;19921;-60
2021/09/24 02:23:15;;;;;;;;;;;;;;;;;;2090619;28;20279;-59
2021/09/24 02:24:16;;;;;;;;;;;;;;;;;;2088622;28;20367;-59
2021/09/24 02:25:17;;;;;;;;;;;;;;;;;;2090063;28;19920;-60
2021/09/24 02:26:18;;;;;;;;;;;;;;;;;;2090454;28;20370;-59
2021/09/24 02:27:32;;;;;;;;;;;;;;;;;;2088213;28;19920;-61
2021/09/24 02:28:33;;;;;;;;;;;;;;;;;;2082216;28;19921;-61
2021/09/24 02:29:34;;;;;;;;;;;;;;;;;;2081935;28;19933;-61
2021/09/24 02:30:35;;;;;;;;;;;;;;;;;;2088429;28;19935;-60
2021/09/24 02:31:36;;;;;;;;;;;;;;;;;;2090676;28;20282;-61
2021/09/24 02:32:37;;;;;;;;;;;;;;;;;;2090121;28;20439;-61
2021/09/24 02:33:37;;;;;;;;;;;;;;;;;;2088614;28;19920;-61
2021/09/24 02:34:38;;;;;;;;;;;;;;;;;;2090474;28;19921;-62
2021/09/24 02:35:39;;;;;;;;;;;;;;;;;;2089710;28;19927;-61
2021/09/24 02:36:40;;;;;;;;;;;;;;;;;;2088743;28;19933;-61
2021/09/24 02:37:40;;;;;;;;;;;;;;;;;;2090400;28;19921;-62
2021/09/24 02:38:41;;;;;;;;;;;;;;;;;;2089859;28;19925;-61
2021/09/24 02:39:42;;;;;;;;;;;;;;;;;;2088448;28;19921;-62
2021/09/24 02:40:43;;;;;;;;;;;;;;;;;;2090465;28;19982;-62
2021/09/24 02:41:43;;;;;;;;;;;;;;;;;;2089620;28;20005;-62
2021/09/24 02:42:44;;;;;;;;;;;;;;;;;;2088792;28;20311;-61
2021/09/24 02:43:45;;;;;;;;;;;;;;;;;;2090258;28;19970;-62
2021/09/24 02:44:46;;;;;;;;;;;;;;;;;;2089266;28;19978;-61
2021/09/24 02:45:47;;;;;;;;;;;;;;;;;;2088715;28;20240;-62
2021/09/24 02:46:48;;;;;;;;;;;;;;;;;;2090550;28;19925;-62
2021/09/24 02:47:49;;;;;;;;;;;;;;;;;;2089380;28;20298;-62
2021/09/24 02:48:49;;;;;;;;;;;;;;;;;;2088893;28;19920;-61
2021/09/24 02:49:50;;;;;;;;;;;;;;;;;;2090513;28;19921;-61
2021/09/24 02:50:51;;;;;;;;;;;;;;;;;;2087100;28;19920;-61
2021/09/24 02:51:52;;;;;;;;;;;;;;;;;;2088785;28;19928;-61
2021/09/24 02:52:53;;;;;;;;;;;;;;;;;;2090387;28;19920;-61
2021/09/24 02:53:54;;;;;;;;;;;;;;;;;;2088952;28;19925;-62
2021/09/24 02:54:54;;;;;;;;;;;;;;;;;;2089389;28;19924;-62
2021/09/24 02:55:55;;;;;;;;;;;;;;;;;;2090253;28;19963;-60
2021/09/24 02:56:57;;;;;;;;;;;;;;;;;;2088097;28;19921;-61
2021/09/24 02:57:58;;;;;;;;;;;;;;;;;;2089121;28;19921;-61
2021/09/24 02:58:58;;;;;;;;;;;;;;;;;;2090388;28;20011;-61
2021/09/24 02:59:59;;;;;;;;;;;;;;;;;;2089121;28;19952;-60
2021/09/24 03:01:00;;;;;;;;;;;;;;;;;;2082265;28;19921;-59
2021/09/24 03:02:01;;;;;;;;;;;;;;;;;;2080762;28;19921;-60
2021/09/24 03:03:02;;;;;;;;;;;;;;;;;;2087725;28;19927;-60
2021/09/24 03:04:03;;;;;;;;;;;;;;;;;;2082019;28;19921;-60
2021/09/24 03:05:04;;;;;;;;;;;;;;;;;;2081991;28;20306;-60
2021/09/24 03:06:05;;;;;;;;;;;;;;;;;;2087315;28;19921;-59
2021/09/24 03:07:06;;;;;;;;;;;;;;;;;;2090241;28;20325;-60
2021/09/24 03:08:07;;;;;;;;;;;;;;;;;;2090316;28;19920;-59
2021/09/24 03:09:08;;;;;;;;;;;;;;;;;;2088172;28;20286;-59
2021/09/24 03:10:08;;;;;;;;;;;;;;;;;;2090308;28;19924;-60
2021/09/24 03:11:09;;;;;;;;;;;;;;;;;;2089683;28;20026;-59
2021/09/24 03:12:10;;;;;;;;;;;;;;;;;;2088176;28;19921;-59
2021/09/24 03:13:11;;;;;;;;;;;;;;;;;;2090110;28;19920;-59
2021/09/24 03:14:12;;;;;;;;;;;;;;;;;;2089739;28;19921;-59
2021/09/24 03:15:12;;;;;;;;;;;;;;;;;;2088181;28;20362;-59
2021/09/24 03:16:18;;;;;;;;;;;;;;;;;;2090145;28;19920;-59
2021/09/24 03:17:18;;;;;;;;;;;;;;;;;;2089786;28;19921;-59
2021/09/24 03:18:19;;;;;;;;;;;;;;;;;;2087889;28;19943;-59
2021/09/24 03:19:20;;;;;;;;;;;;;;;;;;2090252;28;20015;-59
2021/09/24 03:20:21;;;;;;;;;;;;;;;;;;2089288;28;19967;-58
2021/09/24 03:21:22;;;;;;;;;;;;;;;;;;2088664;28;19963;-59
2021/09/24 03:22:23;;;;;;;;;;;;;;;;;;2090203;28;19925;-58
2021/09/24 03:23:24;;;;;;;;;;;;;;;;;;2089374;28;19975;-58
2021/09/24 03:24:25;;;;;;;;;;;;;;;;;;2084522;28;19921;-58
2021/09/24 03:25:26;;;;;;;;;;;;;;;;;;2081907;28;20362;-58
2021/09/24 03:26:26;;;;;;;;;;;;;;;;;;2084964;28;19928;-58
2021/09/24 03:27:27;;;;;;;;;;;;;;;;;;2088615;28;19924;-58
2021/09/24 03:28:28;;;;;;;;;;;;;;;;;;2090085;28;19921;-58
2021/09/24 03:29:29;;;;;;;;;;;;;;;;;;2088932;28;19920;-58
2021/09/24 03:30:29;;;;;;;;;;;;;;;;;;2083472;28;19921;-59
2021/09/24 03:31:30;;;;;;;;;;;;;;;;;;2081812;28;20267;-59
2021/09/24 03:32:31;;;;;;;;;;;;;;;;;;2085495;28;20363;-58
2021/09/24 03:33:32;;;;;;;;;;;;;;;;;;2089755;28;19921;-60
2021/09/24 03:34:33;;;;;;;;;;;;;;;;;;2090158;28;19920;-59
2021/09/24 03:35:34;;;;;;;;;;;;;;;;;;2087897;28;19920;-59
2021/09/24 03:36:35;;;;;;;;;;;;;;;;;;2089740;28;20301;-59
2021/09/24 03:37:35;;;;;;;;;;;;;;;;;;2090039;28;19921;-59
2021/09/24 03:38:36;;;;;;;;;;;;;;;;;;2087794;28;19929;-59
2021/09/24 03:39:37;;;;;;;;;;;;;;;;;;2089956;28;19920;-59
2021/09/24 03:40:38;;;;;;;;;;;;;;;;;;2089781;28;19982;-58
2021/09/24 03:41:38;;;;;;;;;;;;;;;;;;2087608;28;19921;-59
2021/09/24 03:42:39;;;;;;;;;;;;;;;;;;2089999;28;19975;-58
2021/09/24 03:43:40;;;;;;;;;;;;;;;;;;2089998;28;20366;-59
2021/09/24 03:44:41;;;;;;;;;;;;;;;;;;2087795;28;19927;-59
2021/09/24 03:45:42;;;;;;;;;;;;;;;;;;2081766;28;19921;-59
2021/09/24 03:46:43;;;;;;;;;;;;;;;;;;2081621;28;20420;-59
2021/09/24 03:47:44;;;;;;;;;;;;;;;;;;2087426;28;19928;-59
2021/09/24 03:48:44;;;;;;;;;;;;;;;;;;2081709;28;19932;-57
2021/09/24 03:49:45;;;;;;;;;;;;;;;;;;2082139;28;19932;-59
2021/09/24 03:50:46;;;;;;;;;;;;;;;;;;2085836;28;19925;-59
2021/09/24 03:51:47;;;;;;;;;;;;;;;;;;2089929;28;19925;-59
2021/09/24 03:52:47;;;;;;;;;;;;;;;;;;2089518;28;19925;-59
2021/09/24 03:53:48;;;;;;;;;;;;;;;;;;2088183;28;19970;-59
2021/09/24 03:54:49;;;;;;;;;;;;;;;;;;2089896;28;20329;-59
2021/09/24 03:55:52;;;;;;;;;;;;;;;;;;2089137;28;19921;-58
2021/09/24 03:56:53;;;;;;;;;;;;;;;;;;2087394;28;20370;-58
2021/09/24 03:57:54;;;;;;;;;;;;;;;;;;2090032;28;19925;-59
2021/09/24 03:58:55;;;;;;;;;;;;;;;;;;2089228;28;19920;-59
2021/09/24 03:59:56;;;;;;;;;;;;;;;;;;2084961;28;20326;-59
2021/09/24 04:00:57;;;;;;;;;;;;;;;;;;2081540;28;19921;-58
2021/09/24 04:01:57;;;;;;;;;;;;;;;;;;2084488;28;19959;-59
2021/09/24 04:02:59;;;;;;;;;;;;;;;;;;2084622;28;20325;-59
2021/09/24 04:03:59;;;;;;;;;;;;;;;;;;2081750;28;19928;-59
2021/09/24 04:05:00;;;;;;;;;;;;;;;;;;2085054;28;19921;-59
2021/09/24 04:06:01;;;;;;;;;;;;;;;;;;2088324;28;19920;-59
2021/09/24 04:07:02;;;;;;;;;;;;;;;;;;2089831;28;19925;-59
2021/09/24 04:08:03;;;;;;;;;;;;;;;;;;2088629;28;19924;-59
2021/09/24 04:09:04;;;;;;;;;;;;;;;;;;2088936;28;19925;-59
2021/09/24 04:10:05;;;;;;;;;;;;;;;;;;2089776;28;19921;-60
2021/09/24 04:11:06;;;;;;;;;;;;;;;;;;2087959;28;20329;-59
2021/09/24 04:12:07;;;;;;;;;;;;;;;;;;2089397;28;19920;-59
2021/09/24 04:13:08;;;;;;;;;;;;;;;;;;2089353;28;19929;-59
2021/09/24 04:14:08;;;;;;;;;;;;;;;;;;2088595;28;19927;-60
2021/09/24 04:15:09;;;;;;;;;;;;;;;;;;2082172;28;19921;-59
2021/09/24 04:16:10;;;;;;;;;;;;;;;;;;2081291;28;19921;-60
2021/09/24 04:17:11;;;;;;;;;;;;;;;;;;2087246;28;19929;-60
2021/09/24 04:18:11;;;;;;;;;;;;;;;;;;2081494;28;19927;-60
2021/09/24 04:19:12;;;;;;;;;;;;;;;;;;2081650;28;19921;-60
2021/09/24 04:20:13;;;;;;;;;;;;;;;;;;2087448;28;20411;-59
2021/09/24 04:21:14;;;;;;;;;;;;;;;;;;2081374;28;20294;-59
2021/09/24 04:22:14;;;;;;;;;;;;;;;;;;2081611;28;20048;-59
2021/09/24 04:23:15;;;;;;;;;;;;;;;;;;2087184;28;19927;-59
2021/09/24 04:24:16;;;;;;;;;;;;;;;;;;2081619;28;19921;-59
2021/09/24 04:25:17;;;;;;;;;;;;;;;;;;2081155;28;20298;-59
2021/09/24 04:26:18;;;;;;;;;;;;;;;;;;2087928;28;19928;-59
2021/09/24 04:27:19;;;;;;;;;;;;;;;;;;2089705;28;20046;-59
2021/09/24 04:28:19;;;;;;;;;;;;;;;;;;2089424;28;19921;-59
2021/09/24 04:29:20;;;;;;;;;;;;;;;;;;2086489;28;19925;-59
2021/09/24 04:30:21;;;;;;;;;;;;;;;;;;2081293;28;19925;-58
2021/09/24 04:31:22;;;;;;;;;;;;;;;;;;2082501;28;19928;-59
2021/09/24 04:32:23;;;;;;;;;;;;;;;;;;2088166;28;20015;-59
2021/09/24 04:33:27;;;;;;;;;;;;;;;;;;2089592;28;20332;-59
2021/09/24 04:34:27;;;;;;;;;;;;;;;;;;2088896;28;19975;-59
2021/09/24 04:35:28;;;;;;;;;;;;;;;;;;2088059;28;19975;-59
2021/09/24 04:36:29;;;;;;;;;;;;;;;;;;2089207;28;20070;-59
2021/09/24 04:37:30;;;;;;;;;;;;;;;;;;2088826;28;19942;-60
2021/09/24 04:38:31;;;;;;;;;;;;;;;;;;2088258;28;19975;-59
2021/09/24 04:39:32;;;;;;;;;;;;;;;;;;2089755;28;19947;-59
2021/09/24 04:40:33;;;;;;;;;;;;;;;;;;2088868;28;19920;-60
2021/09/24 04:41:33;;;;;;;;;;;;;;;;;;2084031;28;19925;-59
2021/09/24 04:42:34;;;;;;;;;;;;;;;;;;2081508;28;19948;-59
2021/09/24 04:43:35;;;;;;;;;;;;;;;;;;2084703;28;19921;-60
2021/09/24 04:44:36;;;;;;;;;;;;;;;;;;2083031;28;19921;-59
2021/09/24 04:45:37;;;;;;;;;;;;;;;;;;2081321;28;19921;-59
2021/09/24 04:46:38;;;;;;;;;;;;;;;;;;2085242;28;19921;-58
2021/09/24 04:47:38;;;;;;;;;;;;;;;;;;2082924;28;19925;-59
2021/09/24 04:48:39;;;;;;;;;;;;;;;;;;2081479;28;19928;-58
2021/09/24 04:49:40;;;;;;;;;;;;;;;;;;2085264;28;19921;-59
2021/09/24 04:50:41;;;;;;;;;;;;;;;;;;2085234;28;19944;-58
2021/09/24 04:51:41;;;;;;;;;;;;;;;;;;2081506;28;19921;-59
2021/09/24 04:52:42;;;;;;;;;;;;;;;;;;2085111;28;20335;-58
2021/09/24 04:53:43;;;;;;;;;;;;;;;;;;2089528;28;19927;-59
2021/09/24 04:54:44;;;;;;;;;;;;;;;;;;2089566;28;19936;-59
2021/09/24 04:55:45;;;;;;;;;;;;;;;;;;2087399;28;20034;-59
2021/09/24 04:56:46;;;;;;;;;;;;;;;;;;2089507;28;19925;-59
2021/09/24 04:57:46;;;;;;;;;;;;;;;;;;2089537;28;19936;-59
2021/09/24 04:58:47;;;;;;;;;;;;;;;;;;2087276;28;20588;-59
2021/09/24 04:59:48;;;;;;;;;;;;;;;;;;2089650;28;19969;-58
2021/09/24 05:00:50;;;;;;;;;;;;;;;;;;2089589;28;19921;-58
2021/09/24 05:01:51;;;;;;;;;;;;;;;;;;2086986;28;19927;-58
2021/09/24 05:02:51;;;;;;;;;;;;;;;;;;2081463;28;19921;-58
2021/09/24 05:03:52;;;;;;;;;;;;;;;;;;2081295;28;20271;-58
2021/09/24 05:04:53;;;;;;;;;;;;;;;;;;2086987;28;20293;-59
2021/09/24 05:05:54;;;;;;;;;;;;;;;;;;2081212;28;20283;-59
2021/09/24 05:06:55;;;;;;;;;;;;;;;;;;2081992;28;19925;-59
2021/09/24 05:07:56;;;;;;;;;;;;;;;;;;2086028;28;19943;-59
2021/09/24 05:08:56;;;;;;;;;;;;;;;;;;2081257;28;19966;-59
2021/09/24 05:09:57;;;;;;;;;;;;;;;;;;2082375;28;19928;-60
2021/09/24 05:10:58;;;;;;;;;;;;;;;;;;2085703;28;20370;-60
2021/09/24 05:11:59;;;;;;;;;;;;;;;;;;2081401;28;19928;-60
2021/09/24 05:13:00;;;;;;;;;;;;;;;;;;2082935;28;19921;-58
2021/09/24 05:14:01;;;;;;;;;;;;;;;;;;2087802;28;20389;-59
2021/09/24 05:15:01;;;;;;;;;;;;;;;;;;2089620;28;19982;-59
2021/09/24 05:16:02;;;;;;;;;;;;;;;;;;2088619;28;19972;-58
2021/09/24 05:17:03;;;;;;;;;;;;;;;;;;2087947;28;19935;-59
2021/09/24 05:18:06;;;;;;;;;;;;;;;;;;2089442;28;19920;-59
2021/09/24 05:19:07;;;;;;;;;;;;;;;;;;2088459;28;19999;-59
2021/09/24 05:20:08;;;;;;;;;;;;;;;;;;2083872;28;19921;-60
2021/09/24 05:22:28;;;;;;;;;;;;;;;;;;2085747;28;20389;-60
2021/09/24 05:23:29;;;;;;;;;;;;;;;;;;2089545;28;19921;-59
2021/09/24 05:24:30;;;;;;;;;;;;;;;;;;2089542;28;20038;-59
2021/09/24 05:25:31;;;;;;;;;;;;;;;;;;2087924;28;20317;-59
2021/09/24 05:26:32;;;;;;;;;;;;;;;;;;2090822;28;20346;-59
2021/09/24 05:27:32;;;;;;;;;;;;;;;;;;2090951;28;20277;-59
2021/09/24 05:28:33;;;;;;;;;;;;;;;;;;2088609;28;20145;-59
2021/09/24 05:29:34;;;;;;;;;;;;;;;;;;2090837;28;19924;-59
2021/09/24 05:30:35;;;;;;;;;;;;;;;;;;2090329;28;19974;-58
2021/09/24 05:31:36;;;;;;;;;;;;;;;;;;2088137;28;19939;-59
2021/09/24 05:32:37;;;;;;;;;;;;;;;;;;2082527;28;19967;-59
2021/09/24 05:33:38;;;;;;;;;;;;;;;;;;2089394;28;19928;-59
2021/09/24 05:34:38;;;;;;;;;;;;;;;;;;2088822;28;20434;-60
2021/09/24 05:35:39;;;;;;;;;;;;;;;;;;2090713;28;19928;-60
2021/09/24 05:36:40;;;;;;;;;;;;;;;;;;2090317;28;19920;-59
2021/09/24 05:37:41;;;;;;;;;;;;;;;;;;2086947;28;19925;-59
2021/09/24 05:38:41;;;;;;;;;;;;;;;;;;2082551;28;19928;-60
2021/09/24 05:39:43;;;;;;;;;;;;;;;;;;2084255;28;19950;-59
2021/09/24 05:40:43;;;;;;;;;;;;;;;;;;2089020;28;19921;-59
2021/09/24 05:41:44;;;;;;;;;;;;;;;;;;2090699;28;19929;-59
2021/09/24 05:42:45;;;;;;;;;;;;;;;;;;2090079;28;19974;-58
2021/09/24 05:43:48;;;;;;;;;;;;;;;;;;2089234;28;19924;-58
2021/09/24 05:44:49;;;;;;;;;;;;;;;;;;2090779;28;19971;-58
2021/09/24 05:45:50;;;;;;;;;;;;;;;;;;2089729;28;19925;-59
2021/09/24 05:46:51;;;;;;;;;;;;;;;;;;2089302;28;20009;-59
2021/09/24 05:47:51;;;;;;;;;;;;;;;;;;2090743;28;19920;-59
2021/09/24 05:48:52;;;;;;;;;;;;;;;;;;2089833;28;19921;-59
2021/09/24 05:49:53;;;;;;;;;;;;;;;;;;2084412;28;19924;-57
2021/09/24 05:50:54;;;;;;;;;;;;;;;;;;2081000;28;20287;-58
2021/09/24 05:51:55;;;;;;;;;;;;;;;;;;2086478;28;19929;-60
2021/09/24 05:52:57;;;;;;;;;;;;;;;;;;2083913;28;19921;-59
2021/09/24 05:53:58;;;;;;;;;;;;;;;;;;2082528;28;20047;-60
2021/09/24 05:54:59;;;;;;;;;;;;;;;;;;2085625;28;19986;-59
2021/09/24 05:56:00;;;;;;;;;;;;;;;;;;2090359;28;20007;-58
2021/09/24 05:57:01;;;;;;;;;;;;;;;;;;2090673;28;19974;-59
2021/09/24 05:58:02;;;;;;;;;;;;;;;;;;2088462;28;20398;-59
2021/09/24 05:59:02;;;;;;;;;;;;;;;;;;2090676;28;19935;-59
2021/09/24 06:00:03;;;;;;;;;;;;;;;;;;2090635;28;19967;-60
2021/09/24 06:01:04;;;;;;;;;;;;;;;;;;2089048;28;19942;-60
2021/09/24 06:02:05;;;;;;;;;;;;;;;;;;2082402;28;19928;-60
2021/09/24 06:03:06;;;;;;;;;;;;;;;;;;2082351;28;19932;-60
2021/09/24 06:04:07;;;;;;;;;;;;;;;;;;2088086;28;19921;-62
2021/09/24 06:05:08;;;;;;;;;;;;;;;;;;2082441;28;20386;-59
2021/09/24 06:06:09;;;;;;;;;;;;;;;;;;2082211;28;20008;-44
2021/09/24 06:07:10;;;;;;;;;;;;;;;;;;2088130;28;19936;-44
2021/09/24 06:08:10;;;;;;;;;;;;;;;;;;2082345;28;19921;-45
2021/09/24 06:09:11;;;;;;;;;;;;;;;;;;2082602;28;19921;-45
2021/09/24 06:10:12;;;;;;;;;;;;;;;;;;2087717;28;19924;-45
2021/09/24 06:11:13;;;;;;;;;;;;;;;;;;2082279;28;19986;-45
2021/09/24 06:12:14;;;;;;;;;;;;;;;;;;2083281;28;19943;-45
2021/09/24 06:13:15;;;;;;;;;;;;;;;;;;2088707;28;20389;-45
2021/09/24 06:14:15;;;;;;;;;;;;;;;;;;2090786;28;19921;-45
2021/09/24 06:15:16;;;;;;;;;;;;;;;;;;2089894;28;19927;-45
2021/09/24 06:16:17;;;;;;;;;;;;;;;;;;2088662;28;19921;-45
2021/09/24 06:17:18;;;;;;;;;;;;;;;;;;2090493;28;19928;-45
2021/09/24 06:18:19;;;;;;;;;;;;;;;;;;2089659;28;19921;-45
2021/09/24 06:19:20;;;;;;;;;;;;;;;;;;2089004;28;19960;-45
2021/09/24 06:20:21;;;;;;;;;;;;;;;;;;2090429;28;20366;-45
2021/09/24 06:21:21;;;;;;;;;;;;;;;;;;2089793;28;19928;-45
2021/09/24 06:22:22;;;;;;;;;;;;;;;;;;2088882;28;20404;-45
2021/09/24 06:23:23;;;;;;;;;;;;;;;;;;2090551;28;20393;-45
2021/09/24 06:24:24;;;;;;;;;;;;;;;;;;2089584;28;19921;-45
2021/09/24 06:25:25;;;;;;;;;;;;;;;;;;2084827;28;19932;-44
2021/09/24 06:26:26;;;;;;;;;;;;;;;;;;2082628;28;19928;-60
2021/09/24 06:27:27;;;;;;;;;;;;;;;;;;2085855;28;20014;-60
2021/09/24 06:28:28;;;;;;;;;;;;;;;;;;2082283;28;20008;-59
2021/09/24 06:29:29;;;;;;;;;;;;;;;;;;2086348;28;20003;-59
2021/09/24 06:30:30;;;;;;;;;;;;;;;;;;2086692;28;19929;-60
2021/09/24 06:31:31;;;;;;;;;;;;;;;;;;2082221;28;19928;-58
2021/09/24 06:32:31;;;;;;;;;;;;;;;;;;2083731;28;20294;-59
2021/09/24 06:33:32;;;;;;;;;;;;;;;;;;2088712;28;20366;-59
2021/09/24 06:34:35;;;;;;;;;;;;;;;;;;2090555;28;19943;-58
2021/09/24 06:35:36;;;;;;;;;;;;;;;;;;2089569;28;20439;-59
2021/09/24 06:36:36;;;;;;;;;;;;;;;;;;2085253;28;19951;-59
2021/09/24 06:37:37;;;;;;;;;;;;;;;;;;2082233;28;20375;-61
2021/09/24 06:38:38;;;;;;;;;;;;;;;;;;2084671;28;20221;-60
2021/09/24 06:39:39;;;;;;;;;;;;;;;;;;2088943;28;19921;-61
2021/09/24 06:40:40;;;;;;;;;;;;;;;;;;2090293;28;20374;-61
2021/09/24 06:41:41;;;;;;;;;;;;;;;;;;2089516;28;20289;-61
2021/09/24 06:42:41;;;;;;;;;;;;;;;;;;2084497;28;20350;-61
2021/09/24 06:43:42;;;;;;;;;;;;;;;;;;2082278;28;19921;-60
2021/09/24 06:44:44;;;;;;;;;;;;;;;;;;2085882;28;19925;-61
2021/09/24 06:45:45;;;;;;;;;;;;;;;;;;2089113;28;19966;-60
2021/09/24 06:46:45;;;;;;;;;;;;;;;;;;2090434;28;19928;-60
2021/09/24 06:47:46;;;;;;;;;;;;;;;;;;2089433;28;20374;-60
2021/09/24 06:48:47;;;;;;;;;;;;;;;;;;2083483;28;19931;-59
2021/09/24 06:49:48;;;;;;;;;;;;;;;;;;2082092;28;20027;-58
2021/09/24 06:50:48;;;;;;;;;;;;;;;;;;2084028;28;20271;-59
2021/09/24 06:51:49;;;;;;;;;;;;;;;;;;2082082;28;19928;-59
2021/09/24 06:52:50;;;;;;;;;;;;;;;;;;2082121;28;19921;-60
2021/09/24 06:53:51;;;;;;;;;;;;;;;;;;2087594;28;19921;-60
2021/09/24 06:54:52;;;;;;;;;;;;;;;;;;2082015;28;19960;-60
2021/09/24 06:55:53;;;;;;;;;;;;;;;;;;2082545;28;20412;-59
2021/09/24 06:56:54;;;;;;;;;;;;;;;;;;2086879;28;19982;-61